メインページ
METAR-TAF:

METAR-TAF

空港 :

ワルシャワ・ショパン空港

ワルシャワ, ポーランド

緯度: 52-10N, 経度: 020-58E, 海抜: 106m

現時点の気象観測

当レポートは5分前の07:00(UTC)に作成
西/北西の風 7kt、西から北/北西の間で変化する
気温 6°C
湿度 81%
気圧 1024 hPa
視程10km以上
高度1300ftの雲はほとんどない

METAR: EPWA 240700Z 30007KT 270V330 9999 FEW013 06/03 Q1024 NOSIG

時間: 08:05 (07:05 UTC)

予報

当レポートは1時間35分前の05:30(UTC)に作成
予報は24日の 06時(UTC)から 25日の 06時(UTC)まで有効
北西の風 10kt
視程10km以上
1,500メートル以下は雲なし、積乱雲なし
24日の 16時(UTC)から 24日の 19時(UTC)まで徐々に
変向風 2kt

TAF: EPWA 240530Z 2406/2506 31010KT CAVOK BECMG 2416/2419 VRB02KT

4,000以上の空港の気象観測と天気予報(METAR報とTAF報)

利用可能な観測所は地図上に黄色い丸と赤い丸で示す。

丸の上にカーソルを重ねると観測所名を参照できる。

次にクリックすると気象観測と天気予報を参照できる。

マップの切り替え:黒色「×」印の緑ボタンをクリックして拡大、「-」印の緑ボタンをクリックして縮小、緑色の三角印をクリックして隣りの地図に切り替え


METAR-TAF: